Crescent, OR (97733)

11:09 AM PDT on July 29, 2014 (GMT -0700)
MesoWest Crescent OR US PDTWFO (MMWQCR) Elev 4461 ft | 43.43 °N, 121.70 °W | Change Station

Current weather conditions updated 49 minutes ago

Clear
Clear
78 °F
Feels Like 78 °F
N
0
Wind Variable Wind from North
Gusts 3.0 mph

Today is forecast to be Cooler than yesterday.

Today
High -- | Low -- °F
--% Chance of Precip.
Yesterday
High -- | Low -- °F
Precip. -- in
5:53 AM 8:31 PM
Waxing Crescent, 7% visible
Pressure 30.05 in
Visibility 10.0 miles
Clouds Clear
Heat Index 78 °F
Dew Point 48 °F
Humidity 35%
Rainfall -999.00 in
Snow Depth Not available.
UV 9 out of 12
Pollen 4.00 out of 12
Air Quality Not available.
Flu Activity Not available.
METAR KLMT 291753Z 26004KT 10SM CLR 27/10 A3021 RMK AO2 SLP176 T02720100 10272 20111 58003

More Conditions Fewer Conditions

Pressure 30.05 in
Visibility 10.0 miles
Clouds Clear
Heat Index 78 °F
Dew Point 48 °F
Humidity 35%
Rainfall -999.00 in
Snow Depth Not available.
UV 9 out of 12
Pollen 4.00 out of 12
Air Quality Not available.
Flu Activity Not available.
METAR KLMT 291753Z 26004KT 10SM CLR 27/10 A3021 RMK AO2 SLP176 T02720100 10272 20111 58003

More Conditions Fewer Conditions

10-Day Weather Forecast

Almanac

Astronomy

Jul. 29, 2014 Rise Set
Actual Time 5:53 AM PDT 8:31 PM PDT
Civil Twilight 5:20 AM PDT 9:04 PM PDT
Nautical Twilight 4:38 AM PDT 9:45 PM PDT
Astronomical Twilight 3:51 AM PDT 10:32 PM PDT
Moon 8:40 AM PDT 9:39 PM PDT
Length of Visible Light 15h 44m
Length of Day
14h 38m
Tomorrow will be 2m 11s shorter.
Waxing Crescent, 7% of the Moon is Illuminated
Today
Waxing Crescent
Aug 3
First Quarter
Aug 10
Full
Aug 17
Last Quarter
Aug 25
New

Today's Extremes

State Highs State Lows

Community

WunderPhotos

Upload Photos

1,738,806 photos uploaded!

WunderBlogs® & News

Nearby

Snow Depth

Station Depth Elevation
Salt Creek Falls 0 in 4000 ft
Irish Taylor 0 in 5500 ft
Three Creeks Meadow 0 in 5650 ft
Sevenmile Marsh 0 in 6200 ft
Cold Springs Camp 0 in 6100 ft

Earthquake Activity

City Distance Mag. Time & Date
Lakeview, Oregon 141 miles 3.1 7:40 PM PDT
2014-07-23
Lakeview, Oregon 145 miles 2.8 6:49 PM PDT
2014-07-23
Lakeview, Oregon 145 miles 2.6 11:54 PM PDT
2014-07-22
Lakeview, Oregon 144 miles 2.5 9:12 PM PDT
2014-07-22
Minimum magnitude displayed is 2.5.

Coastal Water Temperatures

Place Temperature
No Stations Reporting

Nearby Weather Stations

Station Location Temp. Heat Index Dew Point Humidity Wind Precip. Elev Updated Type
MesoWest Crescent , Gilchrist, OR 78 °F 78 °F 48 °F 35% North  at  0 mph 0.00 in / hr 4461 ft 10:20 AM PDT MADIS
Big Pines RV Park, Crescent, OR 81.0 °F 80 °F 45 °F 28% NNW  at  1.0 mph 0.00 in / hr 4462 ft 11:05 AM PDT Normal
MesoWest DIMLKE , Chemult, OR 72 °F - - - North  at  - 0.00 in / hr 4726 ft 9:35 AM PDT MADIS
Deedon Lane, La Pine, OR 80.4 °F 80 °F 51 °F 36% NE  at  0.0 mph 0.00 in / hr 4256 ft 11:03 AM PDT Normal

Show More Stations Show Fewer Stations